sensor_id;sensor_type;location;lat;lon;timestamp;pressure;altitude;pressure_sealevel;temperature;humidity
46768;BME280;69007;48.978;18.066;2023-10-13T00:02:10;97690.53;;;15.49;100.00
46768;BME280;69007;48.978;18.066;2023-10-13T00:04:35;97674.44;;;15.42;100.00
46768;BME280;69007;48.978;18.066;2023-10-13T00:07:02;97733.84;;;15.71;100.00
46768;BME280;69007;48.978;18.066;2023-10-13T00:09:30;97694.09;;;15.69;100.00
46768;BME280;69007;48.978;18.066;2023-10-13T00:12:02;97680.84;;;15.57;100.00
46768;BME280;69007;48.978;18.066;2023-10-13T00:14:28;97715.03;;;15.64;100.00
46768;BME280;69007;48.978;18.066;2023-10-13T00:17:01;97717.47;;;15.66;100.00
46768;BME280;69007;48.978;18.066;2023-10-13T00:19:34;97680.91;;;15.52;100.00
46768;BME280;69007;48.978;18.066;2023-10-13T00:22:08;97716.88;;;15.69;100.00
46768;BME280;69007;48.978;18.066;2023-10-13T00:24:40;97692.63;;;15.57;100.00
46768;BME280;69007;48.978;18.066;2023-10-13T00:27:15;97698.63;;;15.59;100.00
46768;BME280;69007;48.978;18.066;2023-10-13T00:30:00;97718.88;;;15.63;100.00
46768;BME280;69007;48.978;18.066;2023-10-13T00:32:51;97711.59;;;15.54;100.00
46768;BME280;69007;48.978;18.066;2023-10-13T00:35:21;97718.34;;;15.61;100.00
46768;BME280;69007;48.978;18.066;2023-10-13T00:38:05;97703.16;;;15.50;100.00
46768;BME280;69007;48.978;18.066;2023-10-13T00:40:42;97714.84;;;15.56;100.00
46768;BME280;69007;48.978;18.066;2023-10-13T00:43:10;97695.16;;;15.35;100.00
46768;BME280;69007;48.978;18.066;2023-10-13T00:45:52;97695.72;;;15.32;100.00
46768;BME280;69007;48.978;18.066;2023-10-13T00:50:57;97727.91;;;15.45;100.00
46768;BME280;69007;48.978;18.066;2023-10-13T00:53:28;97714.78;;;15.42;100.00
46768;BME280;69007;48.978;18.066;2023-10-13T00:55:54;97714.69;;;15.47;100.00
46768;BME280;69007;48.978;18.066;2023-10-13T00:58:23;97727.22;;;15.72;100.00
46768;BME280;69007;48.978;18.066;2023-10-13T01:00:50;97707.81;;;15.69;100.00
46768;BME280;69007;48.978;18.066;2023-10-13T01:03:23;97702.91;;;15.65;100.00
46768;BME280;69007;48.978;18.066;2023-10-13T01:05:53;97691.50;;;15.58;100.00
46768;BME280;69007;48.978;18.066;2023-10-13T01:08:31;97715.91;;;15.60;100.00
46768;BME280;69007;48.978;18.066;2023-10-13T01:11:00;97696.28;;;15.53;100.00
46768;BME280;69007;48.978;18.066;2023-10-13T01:13:25;97727.38;;;15.62;100.00
46768;BME280;69007;48.978;18.066;2023-10-13T01:15:52;97717.75;;;15.64;100.00
46768;BME280;69007;48.978;18.066;2023-10-13T01:18:18;97728.88;;;15.73;100.00
46768;BME280;69007;48.978;18.066;2023-10-13T01:20:43;97705.00;;;15.74;100.00
46768;BME280;69007;48.978;18.066;2023-10-13T01:23:17;97707.19;;;15.77;100.00
46768;BME280;69007;48.978;18.066;2023-10-13T01:25:49;97720.91;;;15.77;100.00
46768;BME280;69007;48.978;18.066;2023-10-13T01:28:15;97698.56;;;15.64;100.00
46768;BME280;69007;48.978;18.066;2023-10-13T01:30:42;97727.13;;;15.82;100.00
46768;BME280;69007;48.978;18.066;2023-10-13T01:33:08;97706.50;;;15.66;100.00
46768;BME280;69007;48.978;18.066;2023-10-13T01:35:36;97731.50;;;15.83;100.00
46768;BME280;69007;48.978;18.066;2023-10-13T01:38:07;97713.50;;;15.72;100.00
46768;BME280;69007;48.978;18.066;2023-10-13T01:40:33;97725.63;;;15.90;100.00
46768;BME280;69007;48.978;18.066;2023-10-13T01:43:00;97707.44;;;15.75;100.00
46768;BME280;69007;48.978;18.066;2023-10-13T01:45:26;97733.94;;;15.85;100.00
46768;BME280;69007;48.978;18.066;2023-10-13T01:47:55;97727.94;;;15.83;100.00
46768;BME280;69007;48.978;18.066;2023-10-13T01:50:21;97697.34;;;15.76;100.00
46768;BME280;69007;48.978;18.066;2023-10-13T01:52:53;97698.34;;;15.80;100.00
46768;BME280;69007;48.978;18.066;2023-10-13T01:55:41;97698.06;;;15.81;100.00
46768;BME280;69007;48.978;18.066;2023-10-13T01:58:15;97724.91;;;15.84;100.00
46768;BME280;69007;48.978;18.066;2023-10-13T02:00:45;97734.53;;;15.82;100.00
46768;BME280;69007;48.978;18.066;2023-10-13T02:03:13;97734.31;;;15.78;100.00
46768;BME280;69007;48.978;18.066;2023-10-13T02:05:46;97720.81;;;15.82;100.00
46768;BME280;69007;48.978;18.066;2023-10-13T02:08:19;97719.41;;;15.84;100.00
46768;BME280;69007;48.978;18.066;2023-10-13T02:10:52;97707.63;;;15.84;100.00
46768;BME280;69007;48.978;18.066;2023-10-13T02:13:19;97705.69;;;15.84;100.00
46768;BME280;69007;48.978;18.066;2023-10-13T02:15:46;97710.09;;;15.86;100.00
46768;BME280;69007;48.978;18.066;2023-10-13T02:18:17;97723.84;;;15.80;100.00
46768;BME280;69007;48.978;18.066;2023-10-13T02:20:51;97693.22;;;15.73;100.00
46768;BME280;69007;48.978;18.066;2023-10-13T02:23:21;97713.22;;;15.79;100.00
46768;BME280;69007;48.978;18.066;2023-10-13T02:25:47;97719.78;;;15.78;100.00
46768;BME280;69007;48.978;18.066;2023-10-13T02:28:13;97708.81;;;15.78;100.00
46768;BME280;69007;48.978;18.066;2023-10-13T02:30:42;97678.22;;;15.65;100.00
46768;BME280;69007;48.978;18.066;2023-10-13T02:33:14;97678.84;;;15.62;100.00
46768;BME280;69007;48.978;18.066;2023-10-13T02:35:45;97674.16;;;15.63;100.00
46768;BME280;69007;48.978;18.066;2023-10-13T02:38:21;97691.34;;;15.69;100.00
46768;BME280;69007;48.978;18.066;2023-10-13T02:41:03;97685.28;;;15.72;100.00
46768;BME280;69007;48.978;18.066;2023-10-13T02:43:35;97706.22;;;15.87;100.00
46768;BME280;69007;48.978;18.066;2023-10-13T02:46:01;97689.09;;;15.76;100.00
46768;BME280;69007;48.978;18.066;2023-10-13T02:48:27;97683.88;;;15.74;100.00
46768;BME280;69007;48.978;18.066;2023-10-13T02:51:06;97708.53;;;15.79;100.00
46768;BME280;69007;48.978;18.066;2023-10-13T02:53:44;97721.44;;;15.79;100.00
46768;BME280;69007;48.978;18.066;2023-10-13T02:56:18;97686.91;;;15.54;100.00
46768;BME280;69007;48.978;18.066;2023-10-13T02:58:51;97706.72;;;15.70;100.00
46768;BME280;69007;48.978;18.066;2023-10-13T03:01:22;97712.19;;;15.70;100.00
46768;BME280;69007;48.978;18.066;2023-10-13T03:03:53;97715.81;;;15.65;100.00
46768;BME280;69007;48.978;18.066;2023-10-13T03:06:21;97698.78;;;15.68;100.00
46768;BME280;69007;48.978;18.066;2023-10-13T03:09:03;97671.81;;;15.56;100.00
46768;BME280;69007;48.978;18.066;2023-10-13T03:11:44;97701.00;;;15.66;100.00
46768;BME280;69007;48.978;18.066;2023-10-13T03:14:20;97666.41;;;15.51;100.00
46768;BME280;69007;48.978;18.066;2023-10-13T03:16:54;97695.31;;;15.62;100.00
46768;BME280;69007;48.978;18.066;2023-10-13T03:19:20;97673.50;;;15.52;100.00
46768;BME280;69007;48.978;18.066;2023-10-13T03:21:46;97660.63;;;15.53;100.00
46768;BME280;69007;48.978;18.066;2023-10-13T03:24:22;97669.88;;;15.57;100.00
46768;BME280;69007;48.978;18.066;2023-10-13T03:27:01;97666.69;;;15.50;100.00
46768;BME280;69007;48.978;18.066;2023-10-13T03:29:38;97685.94;;;15.63;100.00
46768;BME280;69007;48.978;18.066;2023-10-13T03:32:13;97676.91;;;15.44;100.00
46768;BME280;69007;48.978;18.066;2023-10-13T03:34:43;97686.19;;;15.48;100.00
46768;BME280;69007;48.978;18.066;2023-10-13T03:37:35;97685.56;;;15.13;100.00
46768;BME280;69007;48.978;18.066;2023-10-13T03:42:32;97714.75;;;15.23;100.00
46768;BME280;69007;48.978;18.066;2023-10-13T03:44:57;97718.25;;;15.28;100.00
46768;BME280;69007;48.978;18.066;2023-10-13T03:47:22;97706.47;;;15.28;100.00
46768;BME280;69007;48.978;18.066;2023-10-13T03:49:57;97701.34;;;15.21;100.00
46768;BME280;69007;48.978;18.066;2023-10-13T03:52:41;97715.38;;;15.39;100.00
46768;BME280;69007;48.978;18.066;2023-10-13T03:55:07;97698.41;;;15.37;100.00
46768;BME280;69007;48.978;18.066;2023-10-13T03:57:32;97685.19;;;15.39;100.00
46768;BME280;69007;48.978;18.066;2023-10-13T04:00:04;97694.47;;;15.43;100.00
46768;BME280;69007;48.978;18.066;2023-10-13T04:02:46;97724.78;;;15.52;100.00
46768;BME280;69007;48.978;18.066;2023-10-13T04:05:17;97704.25;;;15.30;100.00
46768;BME280;69007;48.978;18.066;2023-10-13T04:08:04;97715.13;;;15.35;100.00
46768;BME280;69007;48.978;18.066;2023-10-13T04:10:47;97735.03;;;15.46;100.00
46768;BME280;69007;48.978;18.066;2023-10-13T04:13:19;97669.78;;;15.05;100.00
46768;BME280;69007;48.978;18.066;2023-10-13T04:15:45;97694.38;;;15.10;100.00
46768;BME280;69007;48.978;18.066;2023-10-13T04:18:29;97723.16;;;15.32;100.00
46768;BME280;69007;48.978;18.066;2023-10-13T04:21:14;97695.88;;;15.21;100.00
46768;BME280;69007;48.978;18.066;2023-10-13T04:24:11;97729.53;;;15.46;100.00
46768;BME280;69007;48.978;18.066;2023-10-13T04:26:47;97704.03;;;15.45;100.00
46768;BME280;69007;48.978;18.066;2023-10-13T04:29:31;97718.03;;;15.44;100.00
46768;BME280;69007;48.978;18.066;2023-10-13T04:32:15;97727.31;;;15.48;100.00
46768;BME280;69007;48.978;18.066;2023-10-13T04:34:56;97690.16;;;15.37;100.00
46768;BME280;69007;48.978;18.066;2023-10-13T04:37:48;97688.78;;;15.39;100.00
46768;BME280;69007;48.978;18.066;2023-10-13T04:40:14;97727.47;;;15.57;100.00
46768;BME280;69007;48.978;18.066;2023-10-13T04:42:40;97716.28;;;15.53;100.00
46768;BME280;69007;48.978;18.066;2023-10-13T04:45:16;97730.13;;;15.62;100.00
46768;BME280;69007;48.978;18.066;2023-10-13T04:47:58;97732.06;;;15.61;100.00
46768;BME280;69007;48.978;18.066;2023-10-13T04:51:00;97693.94;;;15.41;100.00
46768;BME280;69007;48.978;18.066;2023-10-13T04:54:04;97725.59;;;15.52;100.00
46768;BME280;69007;48.978;18.066;2023-10-13T04:56:37;97687.47;;;15.13;100.00
46768;BME280;69007;48.978;18.066;2023-10-13T04:59:38;97734.47;;;15.44;100.00
46768;BME280;69007;48.978;18.066;2023-10-13T05:02:23;97711.22;;;15.41;100.00
46768;BME280;69007;48.978;18.066;2023-10-13T05:05:10;97735.09;;;15.60;100.00
46768;BME280;69007;48.978;18.066;2023-10-13T05:07:46;97733.03;;;15.52;100.00
46768;BME280;69007;48.978;18.066;2023-10-13T05:10:31;97728.34;;;15.52;100.00
46768;BME280;69007;48.978;18.066;2023-10-13T05:13:15;97744.06;;;15.65;100.00
46768;BME280;69007;48.978;18.066;2023-10-13T05:16:00;97720.66;;;15.54;100.00
46768;BME280;69007;48.978;18.066;2023-10-13T05:18:44;97734.44;;;15.68;100.00
46768;BME280;69007;48.978;18.066;2023-10-13T05:21:28;97731.41;;;15.70;100.00
46768;BME280;69007;48.978;18.066;2023-10-13T05:24:12;97754.66;;;15.77;100.00
46768;BME280;69007;48.978;18.066;2023-10-13T05:26:56;97741.75;;;15.78;100.00
46768;BME280;69007;48.978;18.066;2023-10-13T05:29:41;97738.91;;;15.83;100.00
46768;BME280;69007;48.978;18.066;2023-10-13T05:32:25;97751.69;;;15.93;100.00
46768;BME280;69007;48.978;18.066;2023-10-13T05:35:09;97741.28;;;15.90;100.00
46768;BME280;69007;48.978;18.066;2023-10-13T05:37:53;97742.84;;;15.96;100.00
46768;BME280;69007;48.978;18.066;2023-10-13T05:40:37;97750.13;;;16.06;100.00
46768;BME280;69007;48.978;18.066;2023-10-13T05:43:21;97759.75;;;16.22;100.00
46768;BME280;69007;48.978;18.066;2023-10-13T05:46:05;97728.50;;;16.18;100.00
46768;BME280;69007;48.978;18.066;2023-10-13T05:49:07;97754.38;;;16.31;100.00
46768;BME280;69007;48.978;18.066;2023-10-13T05:51:35;97752.19;;;16.47;100.00
46768;BME280;69007;48.978;18.066;2023-10-13T05:54:04;97727.88;;;16.40;100.00
46768;BME280;69007;48.978;18.066;2023-10-13T05:56:59;97766.66;;;16.66;100.00
46768;BME280;69007;48.978;18.066;2023-10-13T05:59:43;97748.13;;;16.58;100.00
46768;BME280;69007;48.978;18.066;2023-10-13T06:02:27;97760.56;;;16.69;100.00
46768;BME280;69007;48.978;18.066;2023-10-13T06:05:12;97770.16;;;16.72;100.00
46768;BME280;69007;48.978;18.066;2023-10-13T06:07:57;97761.91;;;16.72;100.00
46768;BME280;69007;48.978;18.066;2023-10-13T06:10:42;97743.38;;;16.64;100.00
46768;BME280;69007;48.978;18.066;2023-10-13T06:13:27;97750.72;;;16.82;100.00
46768;BME280;69007;48.978;18.066;2023-10-13T06:16:16;97766.19;;;17.11;100.00
46768;BME280;69007;48.978;18.066;2023-10-13T06:19:01;97786.84;;;17.36;100.00
46768;BME280;69007;48.978;18.066;2023-10-13T06:21:45;97763.41;;;17.39;100.00
46768;BME280;69007;48.978;18.066;2023-10-13T06:24:29;97797.41;;;17.57;100.00
46768;BME280;69007;48.978;18.066;2023-10-13T06:27:15;97780.78;;;17.62;100.00
46768;BME280;69007;48.978;18.066;2023-10-13T06:30:01;97778.88;;;17.62;100.00
46768;BME280;69007;48.978;18.066;2023-10-13T06:32:27;97750.16;;;17.55;100.00
46768;BME280;69007;48.978;18.066;2023-10-13T06:34:55;97772.53;;;17.76;100.00
46768;BME280;69007;48.978;18.066;2023-10-13T06:37:25;97773.03;;;17.78;100.00
46768;BME280;69007;48.978;18.066;2023-10-13T06:39:51;97800.94;;;17.85;100.00
46768;BME280;69007;48.978;18.066;2023-10-13T06:42:16;97798.84;;;17.82;100.00
46768;BME280;69007;48.978;18.066;2023-10-13T06:44:45;97770.00;;;17.65;100.00
46768;BME280;69007;48.978;18.066;2023-10-13T06:47:11;97805.38;;;17.72;100.00
46768;BME280;69007;48.978;18.066;2023-10-13T06:49:38;97798.91;;;17.77;100.00
46768;BME280;69007;48.978;18.066;2023-10-13T06:52:11;97767.56;;;17.64;100.00
46768;BME280;69007;48.978;18.066;2023-10-13T06:54:36;97801.84;;;18.08;100.00
46768;BME280;69007;48.978;18.066;2023-10-13T06:57:04;97809.56;;;18.65;100.00
46768;BME280;69007;48.978;18.066;2023-10-13T06:59:32;97812.19;;;19.73;100.00
46768;BME280;69007;48.978;18.066;2023-10-13T07:02:01;97817.44;;;22.76;100.00
46768;BME280;69007;48.978;18.066;2023-10-13T07:04:32;97827.72;;;24.44;89.23
46768;BME280;69007;48.978;18.066;2023-10-13T07:06:57;97823.66;;;24.01;88.92
46768;BME280;69007;48.978;18.066;2023-10-13T07:09:26;97827.25;;;25.27;80.72
46768;BME280;69007;48.978;18.066;2023-10-13T07:12:01;97819.75;;;25.28;80.87
46768;BME280;69007;48.978;18.066;2023-10-13T07:14:27;97831.94;;;25.55;79.83
46768;BME280;69007;48.978;18.066;2023-10-13T07:16:57;97837.53;;;27.39;68.29
46768;BME280;69007;48.978;18.066;2023-10-13T07:19:27;97830.84;;;26.82;69.05
46768;BME280;69007;48.978;18.066;2023-10-13T07:21:59;97840.09;;;24.88;74.50
46768;BME280;69007;48.978;18.066;2023-10-13T07:24:29;97842.09;;;27.48;70.23
46768;BME280;69007;48.978;18.066;2023-10-13T07:27:00;97842.28;;;31.21;54.48
46768;BME280;69007;48.978;18.066;2023-10-13T07:29:30;97832.72;;;31.62;55.45
46768;BME280;69007;48.978;18.066;2023-10-13T07:31:55;97849.59;;;32.20;53.37
46768;BME280;69007;48.978;18.066;2023-10-13T07:34:21;97841.75;;;29.20;57.38
46768;BME280;69007;48.978;18.066;2023-10-13T07:36:56;97831.47;;;26.36;67.10
46768;BME280;69007;48.978;18.066;2023-10-13T07:39:28;97817.38;;;24.86;73.81
46768;BME280;69007;48.978;18.066;2023-10-13T07:41:59;97828.97;;;24.59;75.58
46768;BME280;69007;48.978;18.066;2023-10-13T07:44:44;97824.84;;;24.97;74.14
46768;BME280;69007;48.978;18.066;2023-10-13T07:47:13;97830.97;;;25.79;70.82
46768;BME280;69007;48.978;18.066;2023-10-13T07:49:40;97844.50;;;26.13;68.91
46768;BME280;69007;48.978;18.066;2023-10-13T07:52:11;97840.22;;;27.13;63.62
46768;BME280;69007;48.978;18.066;2023-10-13T07:54:46;97826.16;;;28.25;61.40
46768;BME280;69007;48.978;18.066;2023-10-13T07:57:34;97823.81;;;31.24;53.27
46768;BME280;69007;48.978;18.066;2023-10-13T08:00:01;97830.44;;;32.96;48.86
46768;BME280;69007;48.978;18.066;2023-10-13T08:02:36;97828.66;;;32.31;48.84
46768;BME280;69007;48.978;18.066;2023-10-13T08:05:14;97840.84;;;33.10;47.70
46768;BME280;69007;48.978;18.066;2023-10-13T08:07:50;97831.91;;;32.05;50.47
46768;BME280;69007;48.978;18.066;2023-10-13T08:10:15;97824.97;;;31.01;53.71
46768;BME280;69007;48.978;18.066;2023-10-13T08:12:42;97825.22;;;28.74;58.55
46768;BME280;69007;48.978;18.066;2023-10-13T08:15:09;97811.91;;;27.84;60.81
46768;BME280;69007;48.978;18.066;2023-10-13T08:17:47;97816.63;;;27.30;62.02
46768;BME280;69007;48.978;18.066;2023-10-13T08:20:12;97805.50;;;26.71;64.28
46768;BME280;69007;48.978;18.066;2023-10-13T08:22:38;97799.38;;;26.26;65.80
46768;BME280;69007;48.978;18.066;2023-10-13T08:25:05;97817.34;;;26.09;67.76
46768;BME280;69007;48.978;18.066;2023-10-13T08:28:05;97816.78;;;25.52;68.43
46768;BME280;69007;48.978;18.066;2023-10-13T08:30:50;97826.88;;;24.84;69.50
46768;BME280;69007;48.978;18.066;2023-10-13T08:33:17;97825.72;;;24.86;71.21
46768;BME280;69007;48.978;18.066;2023-10-13T08:35:44;97823.09;;;24.36;72.51
46768;BME280;69007;48.978;18.066;2023-10-13T08:38:20;97794.91;;;23.72;74.26
46768;BME280;69007;48.978;18.066;2023-10-13T08:40:58;97788.09;;;23.21;75.32
46768;BME280;69007;48.978;18.066;2023-10-13T08:43:42;97812.84;;;23.13;78.04
46768;BME280;69007;48.978;18.066;2023-10-13T08:46:10;97815.63;;;23.26;76.95
46768;BME280;69007;48.978;18.066;2023-10-13T08:48:55;97793.09;;;23.40;76.71
46768;BME280;69007;48.978;18.066;2023-10-13T08:51:33;97815.03;;;23.20;77.99
46768;BME280;69007;48.978;18.066;2023-10-13T08:54:13;97815.91;;;22.78;76.74
46768;BME280;69007;48.978;18.066;2023-10-13T08:56:58;97813.59;;;22.47;80.47
46768;BME280;69007;48.978;18.066;2023-10-13T08:59:30;97794.75;;;22.19;80.90
46768;BME280;69007;48.978;18.066;2023-10-13T09:02:12;97791.31;;;21.93;79.84
46768;BME280;69007;48.978;18.066;2023-10-13T09:04:43;97816.13;;;21.89;81.75
46768;BME280;69007;48.978;18.066;2023-10-13T09:07:12;97793.09;;;21.97;81.86
46768;BME280;69007;48.978;18.066;2023-10-13T09:09:51;97821.03;;;22.13;81.87
46768;BME280;69007;48.978;18.066;2023-10-13T09:12:27;97810.03;;;21.96;84.46
46768;BME280;69007;48.978;18.066;2023-10-13T09:15:02;97811.44;;;22.32;81.61
46768;BME280;69007;48.978;18.066;2023-10-13T09:17:39;97803.09;;;22.74;82.47
46768;BME280;69007;48.978;18.066;2023-10-13T09:20:07;97815.22;;;22.69;80.88
46768;BME280;69007;48.978;18.066;2023-10-13T09:22:52;97804.09;;;22.27;81.53
46768;BME280;69007;48.978;18.066;2023-10-13T09:25:40;97793.16;;;22.52;80.42
46768;BME280;69007;48.978;18.066;2023-10-13T09:28:29;97773.75;;;22.52;80.24
46768;BME280;69007;48.978;18.066;2023-10-13T09:30:56;97806.69;;;22.53;81.85
46768;BME280;69007;48.978;18.066;2023-10-13T09:36:00;97812.00;;;22.46;82.47
46768;BME280;69007;48.978;18.066;2023-10-13T09:38:32;97775.81;;;22.21;83.59
46768;BME280;69007;48.978;18.066;2023-10-13T09:40:58;97782.63;;;22.03;84.36
46768;BME280;69007;48.978;18.066;2023-10-13T09:43:27;97786.00;;;22.08;83.86
46768;BME280;69007;48.978;18.066;2023-10-13T09:45:59;97792.38;;;22.30;84.58
46768;BME280;69007;48.978;18.066;2023-10-13T09:48:32;97801.56;;;22.43;82.62
46768;BME280;69007;48.978;18.066;2023-10-13T09:51:04;97790.28;;;22.48;84.08
46768;BME280;69007;48.978;18.066;2023-10-13T09:53:36;97804.41;;;22.89;83.01
46768;BME280;69007;48.978;18.066;2023-10-13T09:56:14;97795.75;;;23.03;81.92
46768;BME280;69007;48.978;18.066;2023-10-13T09:59:00;97758.81;;;23.11;80.58
46768;BME280;69007;48.978;18.066;2023-10-13T10:01:38;97803.03;;;23.65;79.88
46768;BME280;69007;48.978;18.066;2023-10-13T10:04:10;97785.91;;;23.63;78.65
46768;BME280;69007;48.978;18.066;2023-10-13T10:06:54;97798.63;;;23.52;76.80
46768;BME280;69007;48.978;18.066;2023-10-13T10:09:27;97794.19;;;23.14;82.29
46768;BME280;69007;48.978;18.066;2023-10-13T10:17:56;97794.78;;;23.07;82.67
46768;BME280;69007;48.978;18.066;2023-10-13T10:20:35;97788.53;;;23.23;78.15
46768;BME280;69007;48.978;18.066;2023-10-13T10:23:08;97785.06;;;23.13;79.12
46768;BME280;69007;48.978;18.066;2023-10-13T10:25:39;97787.25;;;23.08;80.98
46768;BME280;69007;48.978;18.066;2023-10-13T10:28:10;97768.63;;;22.75;82.23
46768;BME280;69007;48.978;18.066;2023-10-13T10:30:41;97788.09;;;22.87;82.58
46768;BME280;69007;48.978;18.066;2023-10-13T10:33:07;97763.22;;;22.78;81.14
46768;BME280;69007;48.978;18.066;2023-10-13T10:35:46;97782.09;;;22.85;82.51
46768;BME280;69007;48.978;18.066;2023-10-13T10:38:17;97784.34;;;22.71;82.21
46768;BME280;69007;48.978;18.066;2023-10-13T10:41:00;97769.53;;;22.33;82.70
46768;BME280;69007;48.978;18.066;2023-10-13T10:43:39;97772.56;;;22.19;83.42
46768;BME280;69007;48.978;18.066;2023-10-13T10:48:39;97766.25;;;21.89;84.61
46768;BME280;69007;48.978;18.066;2023-10-13T10:51:11;97744.09;;;21.68;85.08
46768;BME280;69007;48.978;18.066;2023-10-13T10:53:47;97747.34;;;21.70;84.82
46768;BME280;69007;48.978;18.066;2023-10-13T10:56:15;97738.94;;;21.58;85.85
46768;BME280;69007;48.978;18.066;2023-10-13T10:59:00;97771.41;;;21.40;87.28
46768;BME280;69007;48.978;18.066;2023-10-13T11:01:27;97766.69;;;21.40;88.10
46768;BME280;69007;48.978;18.066;2023-10-13T11:03:59;97782.28;;;21.53;88.79
46768;BME280;69007;48.978;18.066;2023-10-13T11:06:33;97793.44;;;21.66;87.62
46768;BME280;69007;48.978;18.066;2023-10-13T11:09:06;97774.31;;;21.52;89.71
46768;BME280;69007;48.978;18.066;2023-10-13T11:11:46;97743.72;;;21.40;90.19
46768;BME280;69007;48.978;18.066;2023-10-13T11:14:22;97751.50;;;21.46;89.37
46768;BME280;69007;48.978;18.066;2023-10-13T11:16:51;97769.72;;;21.56;89.71
46768;BME280;69007;48.978;18.066;2023-10-13T11:19:39;97741.38;;;21.21;90.71
46768;BME280;69007;48.978;18.066;2023-10-13T11:25:05;97757.88;;;21.38;93.27
46768;BME280;69007;48.978;18.066;2023-10-13T11:27:38;97756.56;;;21.44;93.16
46768;BME280;69007;48.978;18.066;2023-10-13T11:30:13;97756.53;;;21.53;91.40
46768;BME280;69007;48.978;18.066;2023-10-13T11:32:41;97764.41;;;21.72;92.16
46768;BME280;69007;48.978;18.066;2023-10-13T11:35:09;97746.75;;;21.56;90.73
46768;BME280;69007;48.978;18.066;2023-10-13T11:37:57;97762.03;;;21.62;92.30
46768;BME280;69007;48.978;18.066;2023-10-13T11:40:31;97726.91;;;21.53;92.69
46768;BME280;69007;48.978;18.066;2023-10-13T11:43:17;97741.56;;;21.54;92.93
46768;BME280;69007;48.978;18.066;2023-10-13T11:45:48;97753.00;;;21.74;90.52
46768;BME280;69007;48.978;18.066;2023-10-13T11:48:32;97758.47;;;21.82;91.48
46768;BME280;69007;48.978;18.066;2023-10-13T11:51:05;97747.81;;;21.93;90.46
46768;BME280;69007;48.978;18.066;2023-10-13T11:53:36;97756.25;;;21.97;90.94
46768;BME280;69007;48.978;18.066;2023-10-13T11:56:02;97757.69;;;21.82;91.73
46768;BME280;69007;48.978;18.066;2023-10-13T11:58:35;97755.91;;;21.77;90.90
46768;BME280;69007;48.978;18.066;2023-10-13T12:01:00;97721.53;;;21.78;92.94
46768;BME280;69007;48.978;18.066;2023-10-13T12:03:42;97745.72;;;22.11;92.76
46768;BME280;69007;48.978;18.066;2023-10-13T12:06:39;97745.41;;;22.13;91.06
46768;BME280;69007;48.978;18.066;2023-10-13T12:09:07;97737.88;;;22.13;91.31
46768;BME280;69007;48.978;18.066;2023-10-13T12:11:49;97744.91;;;22.11;91.38
46768;BME280;69007;48.978;18.066;2023-10-13T12:14:19;97706.13;;;21.89;88.97
46768;BME280;69007;48.978;18.066;2023-10-13T12:16:50;97747.22;;;22.08;88.15
46768;BME280;69007;48.978;18.066;2023-10-13T12:19:25;97715.00;;;21.83;87.43
46768;BME280;69007;48.978;18.066;2023-10-13T12:21:56;97725.47;;;21.98;89.21
46768;BME280;69007;48.978;18.066;2023-10-13T12:24:22;97724.91;;;22.05;90.41
46768;BME280;69007;48.978;18.066;2023-10-13T12:27:00;97727.06;;;22.20;88.92
46768;BME280;69007;48.978;18.066;2023-10-13T12:29:26;97703.00;;;22.12;87.62
46768;BME280;69007;48.978;18.066;2023-10-13T12:31:56;97722.47;;;22.24;86.58
46768;BME280;69007;48.978;18.066;2023-10-13T12:34:35;97721.28;;;22.25;86.31
46768;BME280;69007;48.978;18.066;2023-10-13T12:37:19;97725.84;;;22.30;85.60
46768;BME280;69007;48.978;18.066;2023-10-13T12:42:47;97701.31;;;22.20;84.56
46768;BME280;69007;48.978;18.066;2023-10-13T12:45:31;97710.63;;;22.15;83.89
46768;BME280;69007;48.978;18.066;2023-10-13T12:48:15;97718.03;;;22.11;84.80
46768;BME280;69007;48.978;18.066;2023-10-13T12:51:02;97687.47;;;21.99;84.69
46768;BME280;69007;48.978;18.066;2023-10-13T12:53:51;97692.00;;;21.82;84.83
46768;BME280;69007;48.978;18.066;2023-10-13T12:56:18;97687.69;;;21.72;84.93
46768;BME280;69007;48.978;18.066;2023-10-13T12:58:50;97676.94;;;21.71;85.25
46768;BME280;69007;48.978;18.066;2023-10-13T13:01:23;97689.44;;;21.77;85.54
46768;BME280;69007;48.978;18.066;2023-10-13T13:03:51;97697.34;;;21.87;86.03
46768;BME280;69007;48.978;18.066;2023-10-13T13:06:23;97666.63;;;21.80;84.49
46768;BME280;69007;48.978;18.066;2023-10-13T13:08:53;97692.09;;;21.95;85.25
46768;BME280;69007;48.978;18.066;2023-10-13T13:11:18;97679.38;;;21.94;85.19
46768;BME280;69007;48.978;18.066;2023-10-13T13:13:44;97673.81;;;21.94;84.45
46768;BME280;69007;48.978;18.066;2023-10-13T13:16:12;97681.00;;;21.95;85.22
46768;BME280;69007;48.978;18.066;2023-10-13T13:18:37;97683.44;;;21.96;86.92
46768;BME280;69007;48.978;18.066;2023-10-13T13:21:02;97675.72;;;22.02;84.24
46768;BME280;69007;48.978;18.066;2023-10-13T13:23:31;97681.34;;;21.93;83.54
46768;BME280;69007;48.978;18.066;2023-10-13T13:25:57;97673.03;;;21.93;84.35
46768;BME280;69007;48.978;18.066;2023-10-13T13:28:22;97680.66;;;21.96;83.97
46768;BME280;69007;48.978;18.066;2023-10-13T13:30:49;97678.59;;;22.05;86.59
46768;BME280;69007;48.978;18.066;2023-10-13T13:33:18;97655.56;;;21.93;88.59
46768;BME280;69007;48.978;18.066;2023-10-13T13:35:49;97672.69;;;21.95;90.08
46768;BME280;69007;48.978;18.066;2023-10-13T13:38:14;97680.50;;;21.93;86.43
46768;BME280;69007;48.978;18.066;2023-10-13T13:40:48;97644.78;;;21.79;90.69
46768;BME280;69007;48.978;18.066;2023-10-13T13:43:20;97684.44;;;21.92;93.53
46768;BME280;69007;48.978;18.066;2023-10-13T13:46:04;97667.50;;;21.93;95.06